sensor_id;sensor_type;location;lat;lon;timestamp;P1;durP1;ratioP1;P2;durP2;ratioP2
2201;SDS011;1107;48.654;9.250;2022-07-06T00:01:55;4.47;;;4.07;;
2201;SDS011;1107;48.654;9.250;2022-07-06T00:04:23;7.47;;;3.83;;
2201;SDS011;1107;48.654;9.250;2022-07-06T00:06:50;4.43;;;4.13;;
2201;SDS011;1107;48.654;9.250;2022-07-06T00:09:17;4.30;;;3.90;;
2201;SDS011;1107;48.654;9.250;2022-07-06T00:11:44;4.40;;;4.20;;
2201;SDS011;1107;48.654;9.250;2022-07-06T00:14:12;4.73;;;3.27;;
2201;SDS011;1107;48.654;9.250;2022-07-06T00:16:40;4.40;;;4.10;;
2201;SDS011;1107;48.654;9.250;2022-07-06T00:19:08;4.60;;;4.40;;
2201;SDS011;1107;48.654;9.250;2022-07-06T00:21:35;4.60;;;4.30;;
2201;SDS011;1107;48.654;9.250;2022-07-06T00:24:03;4.70;;;4.30;;
2201;SDS011;1107;48.654;9.250;2022-07-06T00:26:30;4.20;;;3.80;;
2201;SDS011;1107;48.654;9.250;2022-07-06T00:28:57;5.50;;;4.87;;
2201;SDS011;1107;48.654;9.250;2022-07-06T00:31:25;4.33;;;4.13;;
2201;SDS011;1107;48.654;9.250;2022-07-06T00:33:53;4.40;;;4.00;;
2201;SDS011;1107;48.654;9.250;2022-07-06T00:36:21;4.93;;;4.60;;
2201;SDS011;1107;48.654;9.250;2022-07-06T00:38:48;4.80;;;4.50;;
2201;SDS011;1107;48.654;9.250;2022-07-06T00:41:15;5.00;;;4.70;;
2201;SDS011;1107;48.654;9.250;2022-07-06T00:43:49;4.23;;;3.93;;
2201;SDS011;1107;48.654;9.250;2022-07-06T00:46:17;4.50;;;4.10;;
2201;SDS011;1107;48.654;9.250;2022-07-06T00:48:44;9.70;;;4.80;;
2201;SDS011;1107;48.654;9.250;2022-07-06T00:51:13;4.30;;;3.90;;
2201;SDS011;1107;48.654;9.250;2022-07-06T00:53:41;4.90;;;4.60;;
2201;SDS011;1107;48.654;9.250;2022-07-06T00:56:09;4.87;;;4.63;;
2201;SDS011;1107;48.654;9.250;2022-07-06T00:58:37;4.47;;;4.23;;
2201;SDS011;1107;48.654;9.250;2022-07-06T01:01:05;5.00;;;4.60;;
2201;SDS011;1107;48.654;9.250;2022-07-06T01:03:32;5.10;;;4.90;;
2201;SDS011;1107;48.654;9.250;2022-07-06T01:05:59;4.97;;;4.67;;
2201;SDS011;1107;48.654;9.250;2022-07-06T01:08:29;4.87;;;4.47;;
2201;SDS011;1107;48.654;9.250;2022-07-06T01:10:56;5.93;;;4.43;;
2201;SDS011;1107;48.654;9.250;2022-07-06T01:13:23;5.40;;;4.90;;
2201;SDS011;1107;48.654;9.250;2022-07-06T01:15:52;5.40;;;5.10;;
2201;SDS011;1107;48.654;9.250;2022-07-06T01:18:19;5.40;;;4.93;;
2201;SDS011;1107;48.654;9.250;2022-07-06T01:20:48;8.70;;;5.10;;
2201;SDS011;1107;48.654;9.250;2022-07-06T01:23:15;5.00;;;4.70;;
2201;SDS011;1107;48.654;9.250;2022-07-06T01:25:43;5.93;;;5.53;;
2201;SDS011;1107;48.654;9.250;2022-07-06T01:28:10;5.27;;;4.97;;
2201;SDS011;1107;48.654;9.250;2022-07-06T01:30:37;5.57;;;5.10;;
2201;SDS011;1107;48.654;9.250;2022-07-06T01:33:04;5.40;;;4.90;;
2201;SDS011;1107;48.654;9.250;2022-07-06T01:35:31;5.40;;;5.10;;
2201;SDS011;1107;48.654;9.250;2022-07-06T01:38:00;5.50;;;5.00;;
2201;SDS011;1107;48.654;9.250;2022-07-06T01:40:27;5.80;;;5.40;;
2201;SDS011;1107;48.654;9.250;2022-07-06T01:42:54;6.00;;;5.70;;
2201;SDS011;1107;48.654;9.250;2022-07-06T01:45:21;5.63;;;5.13;;
2201;SDS011;1107;48.654;9.250;2022-07-06T01:47:48;8.20;;;5.30;;
2201;SDS011;1107;48.654;9.250;2022-07-06T01:50:15;6.13;;;5.63;;
2201;SDS011;1107;48.654;9.250;2022-07-06T01:52:42;5.40;;;4.90;;
2201;SDS011;1107;48.654;9.250;2022-07-06T01:55:11;5.37;;;5.00;;
2201;SDS011;1107;48.654;9.250;2022-07-06T01:57:38;5.57;;;5.07;;
2201;SDS011;1107;48.654;9.250;2022-07-06T02:00:06;6.13;;;5.83;;
2201;SDS011;1107;48.654;9.250;2022-07-06T02:02:34;6.13;;;5.73;;
2201;SDS011;1107;48.654;9.250;2022-07-06T02:05:01;5.13;;;4.73;;
2201;SDS011;1107;48.654;9.250;2022-07-06T02:07:28;5.60;;;5.20;;
2201;SDS011;1107;48.654;9.250;2022-07-06T02:09:55;5.30;;;5.10;;
2201;SDS011;1107;48.654;9.250;2022-07-06T02:12:24;5.10;;;4.80;;
2201;SDS011;1107;48.654;9.250;2022-07-06T02:14:51;5.57;;;5.27;;
2201;SDS011;1107;48.654;9.250;2022-07-06T02:17:18;11.80;;;5.40;;
2201;SDS011;1107;48.654;9.250;2022-07-06T02:19:45;5.67;;;5.27;;
2201;SDS011;1107;48.654;9.250;2022-07-06T02:22:12;7.40;;;4.93;;
2201;SDS011;1107;48.654;9.250;2022-07-06T02:24:39;4.80;;;4.50;;
2201;SDS011;1107;48.654;9.250;2022-07-06T02:27:06;5.03;;;4.83;;
2201;SDS011;1107;48.654;9.250;2022-07-06T02:29:34;5.90;;;5.50;;
2201;SDS011;1107;48.654;9.250;2022-07-06T02:32:02;5.37;;;5.00;;
2201;SDS011;1107;48.654;9.250;2022-07-06T02:34:29;6.27;;;4.50;;
2201;SDS011;1107;48.654;9.250;2022-07-06T02:36:56;5.63;;;5.33;;
2201;SDS011;1107;48.654;9.250;2022-07-06T02:39:25;5.37;;;5.07;;
2201;SDS011;1107;48.654;9.250;2022-07-06T02:41:52;5.07;;;4.77;;
2201;SDS011;1107;48.654;9.250;2022-07-06T02:44:19;5.63;;;5.23;;
2201;SDS011;1107;48.654;9.250;2022-07-06T02:46:47;4.97;;;4.67;;
2201;SDS011;1107;48.654;9.250;2022-07-06T02:49:15;5.00;;;4.80;;
2201;SDS011;1107;48.654;9.250;2022-07-06T02:51:42;5.57;;;5.17;;
2201;SDS011;1107;48.654;9.250;2022-07-06T02:54:09;7.87;;;5.00;;
2201;SDS011;1107;48.654;9.250;2022-07-06T02:56:36;5.70;;;5.03;;
2201;SDS011;1107;48.654;9.250;2022-07-06T02:59:03;5.37;;;5.07;;
2201;SDS011;1107;48.654;9.250;2022-07-06T03:01:30;6.07;;;5.10;;
2201;SDS011;1107;48.654;9.250;2022-07-06T03:03:58;5.70;;;5.40;;
2201;SDS011;1107;48.654;9.250;2022-07-06T03:06:25;6.20;;;5.00;;
2201;SDS011;1107;48.654;9.250;2022-07-06T03:08:52;5.57;;;5.27;;
2201;SDS011;1107;48.654;9.250;2022-07-06T03:11:20;5.53;;;5.23;;
2201;SDS011;1107;48.654;9.250;2022-07-06T03:13:47;4.70;;;4.50;;
2201;SDS011;1107;48.654;9.250;2022-07-06T03:16:14;5.40;;;5.10;;
2201;SDS011;1107;48.654;9.250;2022-07-06T03:18:41;4.80;;;4.57;;
2201;SDS011;1107;48.654;9.250;2022-07-06T03:21:10;5.20;;;4.90;;
2201;SDS011;1107;48.654;9.250;2022-07-06T03:23:37;5.50;;;5.20;;
2201;SDS011;1107;48.654;9.250;2022-07-06T03:26:04;5.67;;;5.37;;
2201;SDS011;1107;48.654;9.250;2022-07-06T03:28:31;4.97;;;4.70;;
2201;SDS011;1107;48.654;9.250;2022-07-06T03:30:58;5.20;;;4.70;;
2201;SDS011;1107;48.654;9.250;2022-07-06T03:33:25;5.40;;;5.20;;
2201;SDS011;1107;48.654;9.250;2022-07-06T03:35:52;5.13;;;4.83;;
2201;SDS011;1107;48.654;9.250;2022-07-06T03:38:21;8.13;;;4.80;;
2201;SDS011;1107;48.654;9.250;2022-07-06T03:40:48;7.10;;;5.47;;
2201;SDS011;1107;48.654;9.250;2022-07-06T03:43:15;5.37;;;5.07;;
2201;SDS011;1107;48.654;9.250;2022-07-06T03:45:42;5.20;;;4.80;;
2201;SDS011;1107;48.654;9.250;2022-07-06T03:48:09;6.47;;;4.83;;
2201;SDS011;1107;48.654;9.250;2022-07-06T03:50:36;5.13;;;4.83;;
2201;SDS011;1107;48.654;9.250;2022-07-06T03:53:03;5.70;;;5.30;;
2201;SDS011;1107;48.654;9.250;2022-07-06T03:55:31;5.80;;;5.40;;
2201;SDS011;1107;48.654;9.250;2022-07-06T03:57:59;5.60;;;5.10;;
2201;SDS011;1107;48.654;9.250;2022-07-06T04:00:26;5.10;;;4.80;;
2201;SDS011;1107;48.654;9.250;2022-07-06T04:02:53;5.73;;;5.37;;
2201;SDS011;1107;48.654;9.250;2022-07-06T04:05:20;5.30;;;5.00;;
2201;SDS011;1107;48.654;9.250;2022-07-06T04:07:48;5.70;;;5.20;;
2201;SDS011;1107;48.654;9.250;2022-07-06T04:10:15;5.80;;;5.50;;
2201;SDS011;1107;48.654;9.250;2022-07-06T04:12:44;5.87;;;5.57;;
2201;SDS011;1107;48.654;9.250;2022-07-06T04:15:11;5.77;;;5.27;;
2201;SDS011;1107;48.654;9.250;2022-07-06T04:17:38;6.50;;;6.00;;
2201;SDS011;1107;48.654;9.250;2022-07-06T04:20:18;6.63;;;5.93;;
2201;SDS011;1107;48.654;9.250;2022-07-06T04:22:45;10.97;;;5.70;;
2201;SDS011;1107;48.654;9.250;2022-07-06T04:25:12;6.67;;;6.00;;
2201;SDS011;1107;48.654;9.250;2022-07-06T04:27:39;6.07;;;5.40;;
2201;SDS011;1107;48.654;9.250;2022-07-06T04:30:09;5.60;;;5.37;;
2201;SDS011;1107;48.654;9.250;2022-07-06T04:32:36;5.73;;;5.43;;
2201;SDS011;1107;48.654;9.250;2022-07-06T04:35:04;5.80;;;5.57;;
2201;SDS011;1107;48.654;9.250;2022-07-06T04:37:32;5.40;;;5.20;;
2201;SDS011;1107;48.654;9.250;2022-07-06T04:39:59;5.67;;;5.37;;
2201;SDS011;1107;48.654;9.250;2022-07-06T04:42:26;7.10;;;5.47;;
2201;SDS011;1107;48.654;9.250;2022-07-06T04:44:53;6.10;;;5.50;;
2201;SDS011;1107;48.654;9.250;2022-07-06T04:47:22;5.93;;;5.23;;
2201;SDS011;1107;48.654;9.250;2022-07-06T04:49:49;5.97;;;5.60;;
2201;SDS011;1107;48.654;9.250;2022-07-06T04:52:16;6.13;;;5.63;;
2201;SDS011;1107;48.654;9.250;2022-07-06T04:54:43;5.90;;;5.37;;
2201;SDS011;1107;48.654;9.250;2022-07-06T04:57:10;5.83;;;5.43;;
2201;SDS011;1107;48.654;9.250;2022-07-06T04:59:37;5.70;;;5.40;;
2201;SDS011;1107;48.654;9.250;2022-07-06T05:02:04;6.30;;;5.90;;
2201;SDS011;1107;48.654;9.250;2022-07-06T05:04:33;7.10;;;6.03;;
2201;SDS011;1107;48.654;9.250;2022-07-06T05:07:00;6.37;;;5.97;;
2201;SDS011;1107;48.654;9.250;2022-07-06T05:09:27;6.10;;;5.67;;
2201;SDS011;1107;48.654;9.250;2022-07-06T05:11:54;5.60;;;5.10;;
2201;SDS011;1107;48.654;9.250;2022-07-06T05:14:21;6.87;;;5.90;;
2201;SDS011;1107;48.654;9.250;2022-07-06T05:16:48;6.33;;;6.03;;
2201;SDS011;1107;48.654;9.250;2022-07-06T05:19:15;6.80;;;6.10;;
2201;SDS011;1107;48.654;9.250;2022-07-06T05:21:43;6.00;;;5.60;;
2201;SDS011;1107;48.654;9.250;2022-07-06T05:24:10;6.17;;;5.77;;
2201;SDS011;1107;48.654;9.250;2022-07-06T05:26:37;6.70;;;5.70;;
2201;SDS011;1107;48.654;9.250;2022-07-06T05:29:04;6.93;;;6.53;;
2201;SDS011;1107;48.654;9.250;2022-07-06T05:31:32;6.40;;;5.90;;
2201;SDS011;1107;48.654;9.250;2022-07-06T05:33:59;5.07;;;4.87;;
2201;SDS011;1107;48.654;9.250;2022-07-06T05:36:26;5.60;;;5.30;;
2201;SDS011;1107;48.654;9.250;2022-07-06T05:38:54;6.00;;;5.70;;
2201;SDS011;1107;48.654;9.250;2022-07-06T05:41:21;5.70;;;5.30;;
2201;SDS011;1107;48.654;9.250;2022-07-06T05:43:49;5.13;;;4.93;;
2201;SDS011;1107;48.654;9.250;2022-07-06T05:46:16;6.10;;;5.80;;
2201;SDS011;1107;48.654;9.250;2022-07-06T05:48:43;5.30;;;5.10;;
2201;SDS011;1107;48.654;9.250;2022-07-06T05:51:35;5.53;;;5.03;;
2201;SDS011;1107;48.654;9.250;2022-07-06T05:54:04;5.27;;;4.90;;
2201;SDS011;1107;48.654;9.250;2022-07-06T05:56:31;6.17;;;5.50;;
2201;SDS011;1107;48.654;9.250;2022-07-06T05:58:58;5.60;;;5.20;;
2201;SDS011;1107;48.654;9.250;2022-07-06T06:01:25;5.83;;;5.33;;
2201;SDS011;1107;48.654;9.250;2022-07-06T06:03:52;7.07;;;5.27;;
2201;SDS011;1107;48.654;9.250;2022-07-06T06:06:19;11.80;;;5.23;;
2201;SDS011;1107;48.654;9.250;2022-07-06T06:08:46;12.93;;;4.80;;
2201;SDS011;1107;48.654;9.250;2022-07-06T06:11:14;5.53;;;5.13;;
2201;SDS011;1107;48.654;9.250;2022-07-06T06:13:42;5.30;;;4.90;;
2201;SDS011;1107;48.654;9.250;2022-07-06T06:16:09;5.40;;;4.90;;
2201;SDS011;1107;48.654;9.250;2022-07-06T06:18:36;12.63;;;5.37;;
2201;SDS011;1107;48.654;9.250;2022-07-06T06:21:03;7.57;;;5.17;;
2201;SDS011;1107;48.654;9.250;2022-07-06T06:23:30;4.67;;;4.47;;
2201;SDS011;1107;48.654;9.250;2022-07-06T06:25:57;4.90;;;4.40;;
2201;SDS011;1107;48.654;9.250;2022-07-06T06:28:25;5.30;;;4.83;;
2201;SDS011;1107;48.654;9.250;2022-07-06T06:30:52;4.60;;;4.40;;
2201;SDS011;1107;48.654;9.250;2022-07-06T06:33:20;5.90;;;4.70;;
2201;SDS011;1107;48.654;9.250;2022-07-06T06:35:47;7.97;;;4.30;;
2201;SDS011;1107;48.654;9.250;2022-07-06T06:38:15;4.93;;;4.73;;
2201;SDS011;1107;48.654;9.250;2022-07-06T06:40:43;6.60;;;4.43;;
2201;SDS011;1107;48.654;9.250;2022-07-06T06:43:10;5.13;;;4.70;;
2201;SDS011;1107;48.654;9.250;2022-07-06T06:45:39;4.80;;;4.33;;
2201;SDS011;1107;48.654;9.250;2022-07-06T06:48:06;5.40;;;4.97;;
2201;SDS011;1107;48.654;9.250;2022-07-06T06:50:34;5.60;;;4.23;;
2201;SDS011;1107;48.654;9.250;2022-07-06T06:53:01;4.40;;;4.20;;
2201;SDS011;1107;48.654;9.250;2022-07-06T06:55:28;4.50;;;4.20;;
2201;SDS011;1107;48.654;9.250;2022-07-06T06:57:56;4.40;;;4.10;;
2201;SDS011;1107;48.654;9.250;2022-07-06T07:00:23;4.70;;;4.20;;
2201;SDS011;1107;48.654;9.250;2022-07-06T07:02:51;7.90;;;4.27;;
2201;SDS011;1107;48.654;9.250;2022-07-06T07:05:18;4.53;;;4.13;;
2201;SDS011;1107;48.654;9.250;2022-07-06T07:07:45;10.00;;;4.20;;
2201;SDS011;1107;48.654;9.250;2022-07-06T07:10:12;4.57;;;4.37;;
2201;SDS011;1107;48.654;9.250;2022-07-06T07:12:43;4.60;;;4.20;;
2201;SDS011;1107;48.654;9.250;2022-07-06T07:15:10;4.70;;;4.40;;
2201;SDS011;1107;48.654;9.250;2022-07-06T07:17:38;4.47;;;4.27;;
2201;SDS011;1107;48.654;9.250;2022-07-06T07:20:07;4.77;;;4.47;;
2201;SDS011;1107;48.654;9.250;2022-07-06T07:22:35;4.67;;;4.37;;
2201;SDS011;1107;48.654;9.250;2022-07-06T07:25:02;5.17;;;4.77;;
2201;SDS011;1107;48.654;9.250;2022-07-06T07:27:29;4.73;;;4.33;;
2201;SDS011;1107;48.654;9.250;2022-07-06T07:29:56;4.77;;;4.57;;
2201;SDS011;1107;48.654;9.250;2022-07-06T07:32:23;7.50;;;4.10;;
2201;SDS011;1107;48.654;9.250;2022-07-06T07:34:50;4.27;;;4.07;;
2201;SDS011;1107;48.654;9.250;2022-07-06T07:37:19;5.80;;;5.23;;
2201;SDS011;1107;48.654;9.250;2022-07-06T07:39:46;5.27;;;4.97;;
2201;SDS011;1107;48.654;9.250;2022-07-06T07:42:13;4.73;;;4.43;;
2201;SDS011;1107;48.654;9.250;2022-07-06T07:44:40;4.60;;;4.30;;
2201;SDS011;1107;48.654;9.250;2022-07-06T07:47:07;4.23;;;4.00;;
2201;SDS011;1107;48.654;9.250;2022-07-06T07:49:34;4.77;;;4.57;;
2201;SDS011;1107;48.654;9.250;2022-07-06T07:52:01;5.10;;;4.90;;
2201;SDS011;1107;48.654;9.250;2022-07-06T07:54:30;5.33;;;4.93;;
2201;SDS011;1107;48.654;9.250;2022-07-06T07:56:58;5.03;;;4.53;;
2201;SDS011;1107;48.654;9.250;2022-07-06T07:59:25;5.37;;;4.67;;
2201;SDS011;1107;48.654;9.250;2022-07-06T08:01:52;5.37;;;5.03;;
2201;SDS011;1107;48.654;9.250;2022-07-06T08:04:19;4.60;;;4.30;;
2201;SDS011;1107;48.654;9.250;2022-07-06T08:06:46;4.57;;;4.37;;
2201;SDS011;1107;48.654;9.250;2022-07-06T08:09:13;5.10;;;4.60;;
2201;SDS011;1107;48.654;9.250;2022-07-06T08:11:43;5.27;;;4.83;;
2201;SDS011;1107;48.654;9.250;2022-07-06T08:14:10;9.13;;;4.50;;
2201;SDS011;1107;48.654;9.250;2022-07-06T08:16:39;4.70;;;4.10;;
2201;SDS011;1107;48.654;9.250;2022-07-06T08:19:06;5.80;;;4.20;;
2201;SDS011;1107;48.654;9.250;2022-07-06T08:21:33;4.83;;;4.40;;
2201;SDS011;1107;48.654;9.250;2022-07-06T08:24:00;7.53;;;5.03;;
2201;SDS011;1107;48.654;9.250;2022-07-06T08:26:28;5.20;;;4.90;;
2201;SDS011;1107;48.654;9.250;2022-07-06T08:28:57;5.30;;;4.33;;
2201;SDS011;1107;48.654;9.250;2022-07-06T08:31:24;9.60;;;4.97;;
2201;SDS011;1107;48.654;9.250;2022-07-06T08:33:52;4.97;;;4.67;;
2201;SDS011;1107;48.654;9.250;2022-07-06T08:36:19;4.90;;;4.60;;
2201;SDS011;1107;48.654;9.250;2022-07-06T08:38:47;4.75;;;4.35;;
2201;SDS011;1107;48.654;9.250;2022-07-06T08:41:14;4.90;;;4.50;;
2201;SDS011;1107;48.654;9.250;2022-07-06T08:43:42;5.30;;;4.87;;
2201;SDS011;1107;48.654;9.250;2022-07-06T08:46:10;4.77;;;4.57;;
2201;SDS011;1107;48.654;9.250;2022-07-06T08:48:40;4.97;;;4.57;;
2201;SDS011;1107;48.654;9.250;2022-07-06T08:51:08;5.30;;;4.97;;
2201;SDS011;1107;48.654;9.250;2022-07-06T08:53:35;4.60;;;4.30;;
2201;SDS011;1107;48.654;9.250;2022-07-06T08:56:03;4.33;;;3.93;;
2201;SDS011;1107;48.654;9.250;2022-07-06T08:58:30;6.00;;;4.60;;
2201;SDS011;1107;48.654;9.250;2022-07-06T09:00:58;8.73;;;4.67;;
2201;SDS011;1107;48.654;9.250;2022-07-06T09:03:27;24.23;;;5.13;;
2201;SDS011;1107;48.654;9.250;2022-07-06T09:05:56;4.70;;;4.50;;
2201;SDS011;1107;48.654;9.250;2022-07-06T09:08:28;4.70;;;4.50;;
2201;SDS011;1107;48.654;9.250;2022-07-06T09:10:58;5.50;;;4.43;;
2201;SDS011;1107;48.654;9.250;2022-07-06T09:13:25;5.03;;;4.60;;
2201;SDS011;1107;48.654;9.250;2022-07-06T09:15:52;4.80;;;4.40;;
2201;SDS011;1107;48.654;9.250;2022-07-06T09:18:20;5.70;;;5.30;;
2201;SDS011;1107;48.654;9.250;2022-07-06T09:20:49;10.03;;;5.00;;
2201;SDS011;1107;48.654;9.250;2022-07-06T09:23:16;4.57;;;4.37;;
2201;SDS011;1107;48.654;9.250;2022-07-06T09:25:46;5.83;;;5.33;;
2201;SDS011;1107;48.654;9.250;2022-07-06T09:28:15;6.13;;;4.70;;
2201;SDS011;1107;48.654;9.250;2022-07-06T09:30:42;6.33;;;4.97;;
2201;SDS011;1107;48.654;9.250;2022-07-06T09:33:09;5.40;;;4.63;;
2201;SDS011;1107;48.654;9.250;2022-07-06T09:35:37;5.00;;;4.70;;
2201;SDS011;1107;48.654;9.250;2022-07-06T09:38:07;5.10;;;4.80;;
2201;SDS011;1107;48.654;9.250;2022-07-06T09:40:37;5.23;;;4.73;;
2201;SDS011;1107;48.654;9.250;2022-07-06T09:43:11;4.30;;;4.00;;
2201;SDS011;1107;48.654;9.250;2022-07-06T09:45:40;4.70;;;4.40;;
2201;SDS011;1107;48.654;9.250;2022-07-06T09:48:09;4.80;;;4.60;;
2201;SDS011;1107;48.654;9.250;2022-07-06T09:50:44;5.43;;;4.53;;
2201;SDS011;1107;48.654;9.250;2022-07-06T09:53:13;6.47;;;5.60;;
2201;SDS011;1107;48.654;9.250;2022-07-06T09:55:44;4.80;;;4.50;;
2201;SDS011;1107;48.654;9.250;2022-07-06T09:58:12;4.40;;;4.20;;
2201;SDS011;1107;48.654;9.250;2022-07-06T10:00:40;5.20;;;4.70;;
2201;SDS011;1107;48.654;9.250;2022-07-06T10:03:07;4.90;;;4.60;;
2201;SDS011;1107;48.654;9.250;2022-07-06T10:05:35;4.60;;;4.20;;
2201;SDS011;1107;48.654;9.250;2022-07-06T10:08:03;5.30;;;5.00;;
2201;SDS011;1107;48.654;9.250;2022-07-06T10:10:35;4.83;;;3.97;;
2201;SDS011;1107;48.654;9.250;2022-07-06T10:13:04;4.93;;;4.33;;
2201;SDS011;1107;48.654;9.250;2022-07-06T10:15:32;7.00;;;4.93;;
2201;SDS011;1107;48.654;9.250;2022-07-06T10:18:01;4.60;;;4.40;;
2201;SDS011;1107;48.654;9.250;2022-07-06T10:20:30;5.20;;;4.70;;
2201;SDS011;1107;48.654;9.250;2022-07-06T10:22:59;5.27;;;4.57;;
2201;SDS011;1107;48.654;9.250;2022-07-06T10:25:27;4.47;;;4.27;;
2201;SDS011;1107;48.654;9.250;2022-07-06T10:27:56;7.77;;;4.10;;
2201;SDS011;1107;48.654;9.250;2022-07-06T10:30:23;4.23;;;3.80;;
2201;SDS011;1107;48.654;9.250;2022-07-06T10:32:51;5.03;;;4.63;;
2201;SDS011;1107;48.654;9.250;2022-07-06T10:35:18;4.93;;;4.40;;
2201;SDS011;1107;48.654;9.250;2022-07-06T10:37:46;4.30;;;4.10;;
2201;SDS011;1107;48.654;9.250;2022-07-06T10:40:31;4.33;;;4.03;;
2201;SDS011;1107;48.654;9.250;2022-07-06T10:43:17;4.40;;;4.20;;
2201;SDS011;1107;48.654;9.250;2022-07-06T10:45:50;4.57;;;4.33;;
2201;SDS011;1107;48.654;9.250;2022-07-06T10:48:20;4.30;;;4.00;;
2201;SDS011;1107;48.654;9.250;2022-07-06T10:50:48;4.53;;;4.13;;
2201;SDS011;1107;48.654;9.250;2022-07-06T10:53:17;4.30;;;4.07;;
2201;SDS011;1107;48.654;9.250;2022-07-06T10:55:51;4.97;;;4.50;;
2201;SDS011;1107;48.654;9.250;2022-07-06T11:01:06;6.00;;;4.10;;
2201;SDS011;1107;48.654;9.250;2022-07-06T11:03:38;4.23;;;4.03;;
2201;SDS011;1107;48.654;9.250;2022-07-06T11:06:07;4.80;;;4.60;;
2201;SDS011;1107;48.654;9.250;2022-07-06T11:08:44;4.73;;;4.30;;
2201;SDS011;1107;48.654;9.250;2022-07-06T11:11:18;4.77;;;4.47;;
2201;SDS011;1107;48.654;9.250;2022-07-06T11:13:49;4.27;;;4.07;;
2201;SDS011;1107;48.654;9.250;2022-07-06T11:16:17;4.63;;;4.03;;
2201;SDS011;1107;48.654;9.250;2022-07-06T11:18:46;4.87;;;4.50;;
2201;SDS011;1107;48.654;9.250;2022-07-06T11:21:16;4.20;;;4.00;;
2201;SDS011;1107;48.654;9.250;2022-07-06T11:23:48;5.00;;;4.70;;
2201;SDS011;1107;48.654;9.250;2022-07-06T11:26:16;4.40;;;4.10;;
2201;SDS011;1107;48.654;9.250;2022-07-06T11:28:45;4.20;;;3.90;;
2201;SDS011;1107;48.654;9.250;2022-07-06T11:31:15;6.07;;;4.60;;
2201;SDS011;1107;48.654;9.250;2022-07-06T11:33:44;4.30;;;4.10;;
2201;SDS011;1107;48.654;9.250;2022-07-06T11:36:16;4.80;;;4.50;;
2201;SDS011;1107;48.654;9.250;2022-07-06T11:38:45;7.03;;;4.30;;
2201;SDS011;1107;48.654;9.250;2022-07-06T11:41:12;4.67;;;4.40;;
2201;SDS011;1107;48.654;9.250;2022-07-06T11:43:41;5.20;;;4.87;;
2201;SDS011;1107;48.654;9.250;2022-07-06T11:46:20;6.20;;;4.90;;
2201;SDS011;1107;48.654;9.250;2022-07-06T11:48:52;5.60;;;5.07;;
2201;SDS011;1107;48.654;9.250;2022-07-06T11:51:20;4.47;;;4.07;;
2201;SDS011;1107;48.654;9.250;2022-07-06T11:53:49;5.50;;;5.20;;
2201;SDS011;1107;48.654;9.250;2022-07-06T11:56:17;5.50;;;5.00;;
2201;SDS011;1107;48.654;9.250;2022-07-06T11:58:46;4.83;;;4.63;;
2201;SDS011;1107;48.654;9.250;2022-07-06T12:01:15;4.60;;;4.40;;
2201;SDS011;1107;48.654;9.250;2022-07-06T12:03:44;5.20;;;4.90;;
2201;SDS011;1107;48.654;9.250;2022-07-06T12:06:14;4.90;;;4.50;;
2201;SDS011;1107;48.654;9.250;2022-07-06T12:08:43;4.87;;;4.47;;
2201;SDS011;1107;48.654;9.250;2022-07-06T12:11:15;5.43;;;4.90;;
2201;SDS011;1107;48.654;9.250;2022-07-06T12:13:45;4.10;;;3.90;;
2201;SDS011;1107;48.654;9.250;2022-07-06T12:16:13;5.20;;;4.70;;
2201;SDS011;1107;48.654;9.250;2022-07-06T12:18:41;4.90;;;4.60;;
2201;SDS011;1107;48.654;9.250;2022-07-06T12:21:11;5.20;;;4.90;;
2201;SDS011;1107;48.654;9.250;2022-07-06T12:23:42;5.30;;;4.57;;
2201;SDS011;1107;48.654;9.250;2022-07-06T12:26:10;4.80;;;4.60;;
2201;SDS011;1107;48.654;9.250;2022-07-06T12:28:38;5.10;;;4.73;;
2201;SDS011;1107;48.654;9.250;2022-07-06T12:31:06;5.93;;;4.57;;
2201;SDS011;1107;48.654;9.250;2022-07-06T12:33:33;5.43;;;4.93;;
2201;SDS011;1107;48.654;9.250;2022-07-06T12:36:12;5.43;;;5.03;;
2201;SDS011;1107;48.654;9.250;2022-07-06T12:38:43;4.50;;;4.30;;
2201;SDS011;1107;48.654;9.250;2022-07-06T12:41:24;4.57;;;4.27;;
2201;SDS011;1107;48.654;9.250;2022-07-06T12:44:01;4.80;;;4.27;;
2201;SDS011;1107;48.654;9.250;2022-07-06T12:46:30;9.93;;;4.77;;
2201;SDS011;1107;48.654;9.250;2022-07-06T12:49:00;5.27;;;4.30;;
2201;SDS011;1107;48.654;9.250;2022-07-06T12:51:40;4.40;;;4.10;;
2201;SDS011;1107;48.654;9.250;2022-07-06T12:54:18;4.70;;;4.50;;
2201;SDS011;1107;48.654;9.250;2022-07-06T12:57:02;5.63;;;5.13;;
2201;SDS011;1107;48.654;9.250;2022-07-06T12:59:36;9.53;;;4.43;;
2201;SDS011;1107;48.654;9.250;2022-07-06T13:02:04;4.80;;;4.43;;
2201;SDS011;1107;48.654;9.250;2022-07-06T13:04:33;4.77;;;4.53;;
2201;SDS011;1107;48.654;9.250;2022-07-06T13:07:02;4.80;;;4.50;;
2201;SDS011;1107;48.654;9.250;2022-07-06T13:09:30;5.13;;;4.87;;
2201;SDS011;1107;48.654;9.250;2022-07-06T13:11:57;4.60;;;4.30;;
2201;SDS011;1107;48.654;9.250;2022-07-06T13:14:24;5.27;;;5.00;;
2201;SDS011;1107;48.654;9.250;2022-07-06T13:16:51;5.50;;;5.10;;
2201;SDS011;1107;48.654;9.250;2022-07-06T13:19:19;8.13;;;5.33;;
2201;SDS011;1107;48.654;9.250;2022-07-06T13:21:46;5.17;;;4.87;;
2201;SDS011;1107;48.654;9.250;2022-07-06T13:24:14;5.13;;;4.83;;
2201;SDS011;1107;48.654;9.250;2022-07-06T13:26:41;7.03;;;4.70;;
2201;SDS011;1107;48.654;9.250;2022-07-06T13:29:09;7.00;;;5.13;;
2201;SDS011;1107;48.654;9.250;2022-07-06T13:31:36;4.80;;;4.50;;
2201;SDS011;1107;48.654;9.250;2022-07-06T13:34:04;5.60;;;4.73;;
2201;SDS011;1107;48.654;9.250;2022-07-06T13:36:32;4.97;;;4.57;;
2201;SDS011;1107;48.654;9.250;2022-07-06T13:38:59;5.20;;;4.73;;
2201;SDS011;1107;48.654;9.250;2022-07-06T13:41:27;4.90;;;4.50;;
2201;SDS011;1107;48.654;9.250;2022-07-06T13:43:54;4.40;;;4.20;;
2201;SDS011;1107;48.654;9.250;2022-07-06T13:46:21;4.37;;;4.07;;
2201;SDS011;1107;48.654;9.250;2022-07-06T13:48:48;3.97;;;3.77;;
2201;SDS011;1107;48.654;9.250;2022-07-06T13:51:16;4.63;;;4.23;;
2201;SDS011;1107;48.654;9.250;2022-07-06T13:53:43;11.83;;;5.33;;
2201;SDS011;1107;48.654;9.250;2022-07-06T13:56:10;4.70;;;4.40;;
2201;SDS011;1107;48.654;9.250;2022-07-06T13:58:39;4.90;;;4.60;;
2201;SDS011;1107;48.654;9.250;2022-07-06T14:01:06;5.10;;;4.77;;
2201;SDS011;1107;48.654;9.250;2022-07-06T14:03:33;5.10;;;4.80;;
2201;SDS011;1107;48.654;9.250;2022-07-06T14:06:02;4.83;;;4.40;;
2201;SDS011;1107;48.654;9.250;2022-07-06T14:08:32;4.73;;;4.43;;
2201;SDS011;1107;48.654;9.250;2022-07-06T14:10:59;5.20;;;4.90;;
2201;SDS011;1107;48.654;9.250;2022-07-06T14:13:27;4.60;;;4.33;;
2201;SDS011;1107;48.654;9.250;2022-07-06T14:15:55;4.93;;;4.50;;
2201;SDS011;1107;48.654;9.250;2022-07-06T14:18:22;4.87;;;4.57;;
2201;SDS011;1107;48.654;9.250;2022-07-06T14:20:50;5.30;;;4.90;;
2201;SDS011;1107;48.654;9.250;2022-07-06T14:23:18;4.53;;;4.20;;
2201;SDS011;1107;48.654;9.250;2022-07-06T14:25:46;6.27;;;4.43;;
2201;SDS011;1107;48.654;9.250;2022-07-06T14:28:14;5.10;;;4.60;;
2201;SDS011;1107;48.654;9.250;2022-07-06T14:30:43;5.10;;;4.67;;
2201;SDS011;1107;48.654;9.250;2022-07-06T14:33:12;9.20;;;5.00;;
2201;SDS011;1107;48.654;9.250;2022-07-06T14:35:41;4.97;;;4.57;;
2201;SDS011;1107;48.654;9.250;2022-07-06T14:38:09;4.90;;;4.60;;
2201;SDS011;1107;48.654;9.250;2022-07-06T14:40:37;4.90;;;4.70;;
2201;SDS011;1107;48.654;9.250;2022-07-06T14:43:04;4.97;;;4.57;;
2201;SDS011;1107;48.654;9.250;2022-07-06T14:45:31;5.10;;;4.80;;
2201;SDS011;1107;48.654;9.250;2022-07-06T14:47:58;4.83;;;4.53;;
2201;SDS011;1107;48.654;9.250;2022-07-06T14:50:27;4.40;;;4.20;;
2201;SDS011;1107;48.654;9.250;2022-07-06T14:52:54;4.27;;;3.97;;
2201;SDS011;1107;48.654;9.250;2022-07-06T14:55:22;7.80;;;4.53;;
2201;SDS011;1107;48.654;9.250;2022-07-06T14:57:58;4.26;;;3.96;;
2201;SDS011;1107;48.654;9.250;2022-07-06T15:00:25;4.43;;;4.13;;
2201;SDS011;1107;48.654;9.250;2022-07-06T15:02:52;4.50;;;4.30;;
2201;SDS011;1107;48.654;9.250;2022-07-06T15:05:19;12.57;;;4.20;;
2201;SDS011;1107;48.654;9.250;2022-07-06T15:07:48;7.53;;;3.70;;
2201;SDS011;1107;48.654;9.250;2022-07-06T15:10:15;3.70;;;3.50;;
2201;SDS011;1107;48.654;9.250;2022-07-06T15:12:42;5.30;;;4.80;;
2201;SDS011;1107;48.654;9.250;2022-07-06T15:15:09;4.40;;;4.20;;
2201;SDS011;1107;48.654;9.250;2022-07-06T15:17:37;8.23;;;4.00;;
2201;SDS011;1107;48.654;9.250;2022-07-06T15:20:04;4.30;;;4.00;;
2201;SDS011;1107;48.654;9.250;2022-07-06T15:22:31;4.30;;;4.00;;
2201;SDS011;1107;48.654;9.250;2022-07-06T15:25:02;4.30;;;3.90;;